Time;durP1;ratioP1;P1;durP2;ratioP2;P2;SDS_P1;SDS_P2;PMS_P1;PMS_P2;Temp;Humidity;BMP_temperature;BMP_pressure;BME280_temperature;BME280_humidity;BME280_pressure;Samples;Min_cycle;Max_cycle;Signal;HPM_P1;HPM_P2
2022/03/12 00:01:01;;;;;;;10.23;6.35;;;;;;;9.43;32.93;101237.44;5112346;28;20066;-69
2022/03/12 00:03:35;;;;;;;9.25;5.97;;;;;;;9.46;32.83;101245.25;5112918;28;20093;-70
2022/03/12 00:06:03;;;;;;;14.63;5.85;;;;;;;9.44;32.92;101241.78;5109982;27;20044;-69
2022/03/12 00:08:43;;;;;;;9.82;6.63;;;;;;;9.47;32.90;101243.50;5111456;28;20040;-68
2022/03/12 00:11:27;;;;;;;8.77;5.68;;;;;;;9.45;32.66;101242.66;5111711;27;20048;-67
2022/03/12 00:13:57;;;;;;;10.90;5.82;;;;;;;9.43;32.90;101245.31;5105621;28;20051;-66
2022/03/12 00:16:26;;;;;;;10.38;6.40;;;;;;;9.42;33.21;101251.47;5112509;27;20051;-67
2022/03/12 00:18:58;;;;;;;12.40;6.15;;;;;;;9.41;33.18;101246.25;5110945;27;20036;-68
2022/03/12 00:21:41;;;;;;;10.32;6.25;;;;;;;9.37;33.33;101248.06;5111798;28;20117;-67
2022/03/12 00:24:14;;;;;;;9.98;5.78;;;;;;;9.34;33.27;101253.38;5112104;27;20060;-66
2022/03/12 00:26:43;;;;;;;10.02;5.68;;;;;;;9.31;33.29;101251.66;5112321;27;20796;-66
2022/03/12 00:29:15;;;;;;;11.23;5.57;;;;;;;9.30;33.57;101247.31;5112120;27;20123;-66
2022/03/12 00:31:45;;;;;;;10.13;5.93;;;;;;;9.29;33.79;101257.84;5111221;27;20036;-68
2022/03/12 00:34:14;;;;;;;10.43;6.00;;;;;;;9.27;33.79;101255.25;5111412;28;20055;-67
2022/03/12 00:36:43;;;;;;;10.98;6.00;;;;;;;9.24;33.95;101257.94;5110375;28;20040;-69
2022/03/12 00:39:12;;;;;;;11.32;6.22;;;;;;;9.20;33.96;101248.38;5112047;27;20131;-69
2022/03/12 00:41:43;;;;;;;11.10;6.28;;;;;;;9.21;33.93;101262.41;5111078;27;20039;-70
2022/03/12 00:44:19;;;;;;;9.32;5.80;;;;;;;9.20;34.09;101255.41;5108260;28;20090;-70
2022/03/12 00:46:47;;;;;;;13.88;6.80;;;;;;;9.19;34.03;101258.91;5126663;27;20864;-68
2022/03/12 00:49:15;;;;;;;10.35;6.35;;;;;;;9.21;34.09;101265.03;5101200;28;20115;-69
2022/03/12 00:51:44;;;;;;;11.57;6.25;;;;;;;9.24;33.91;101267.59;5111603;28;20046;-69
2022/03/12 00:54:12;;;;;;;9.98;5.60;;;;;;;9.26;33.92;101269.31;5111280;28;20114;-68
2022/03/12 00:56:39;;;;;;;10.45;6.32;;;;;;;9.28;34.11;101266.63;5111756;27;20044;-68
2022/03/12 00:59:07;;;;;;;10.70;6.07;;;;;;;9.30;33.84;101267.47;5111487;27;20628;-67
2022/03/12 01:01:35;;;;;;;16.80;6.30;;;;;;;9.35;33.99;101276.19;5110781;28;20051;-67
2022/03/12 01:04:05;;;;;;;9.65;5.70;;;;;;;9.39;33.81;101275.22;5112520;28;20066;-67
2022/03/12 01:06:34;;;;;;;10.63;5.88;;;;;;;9.43;33.80;101270.75;5110100;28;20044;-67
2022/03/12 01:09:01;;;;;;;8.95;5.95;;;;;;;9.44;33.78;101269.84;5111829;28;20127;-66
2022/03/12 01:11:29;;;;;;;10.18;6.40;;;;;;;9.45;33.96;101272.47;5109581;27;20039;-67
2022/03/12 01:13:56;;;;;;;10.75;6.78;;;;;;;9.46;33.93;101276.81;5111491;27;20111;-66
2022/03/12 01:16:23;;;;;;;11.75;6.85;;;;;;;9.48;33.89;101275.03;5111046;28;20051;-66
2022/03/12 01:18:50;;;;;;;14.02;6.30;;;;;;;9.51;33.71;101279.41;5103808;28;20044;-67
2022/03/12 01:21:20;;;;;;;11.35;6.20;;;;;;;9.54;33.80;101279.31;5109510;28;20036;-67
2022/03/12 01:23:49;;;;;;;11.32;5.82;;;;;;;9.56;33.76;101280.16;5110464;28;20043;-66
2022/03/12 01:26:22;;;;;;;13.02;5.88;;;;;;;9.55;33.88;101281.06;5103100;27;20037;-66
2022/03/12 01:28:50;;;;;;;11.35;5.70;;;;;;;9.57;33.93;101275.75;5109011;28;20050;-65
2022/03/12 01:31:19;;;;;;;10.10;6.43;;;;;;;9.57;33.93;101275.75;5111047;28;20041;-66
2022/03/12 01:33:46;;;;;;;9.60;6.05;;;;;;;9.56;33.89;101284.56;5110783;28;20040;-66
2022/03/12 01:36:13;;;;;;;11.75;6.38;;;;;;;9.57;33.88;101283.66;5109694;28;20055;-66
2022/03/12 01:38:53;;;;;;;8.95;5.68;;;;;;;9.58;33.85;101285.38;5103233;27;20490;-66
2022/03/12 01:41:27;;;;;;;9.52;5.85;;;;;;;9.59;34.23;101279.22;5109528;28;20032;-67
2022/03/12 01:43:57;;;;;;;12.30;6.28;;;;;;;9.59;34.30;101282.75;5100889;27;20036;-66
2022/03/12 01:46:34;;;;;;;10.65;6.25;;;;;;;9.59;34.61;101285.38;5110079;28;20056;-66
2022/03/12 01:49:10;;;;;;;9.50;6.00;;;;;;;9.61;34.46;101282.69;5107014;28;20539;-67
2022/03/12 01:51:41;;;;;;;10.15;5.95;;;;;;;9.61;34.38;101295.88;5109662;28;20044;-67
2022/03/12 01:54:09;;;;;;;10.30;5.90;;;;;;;9.60;34.11;101287.13;5109534;27;20342;-67
2022/03/12 01:56:38;;;;;;;11.70;6.07;;;;;;;9.62;34.23;101287.06;5109928;27;20551;-67
2022/03/12 01:59:13;;;;;;;9.00;5.82;;;;;;;9.62;34.35;101294.97;5111654;28;20040;-68
2022/03/12 02:01:40;;;;;;;10.43;6.00;;;;;;;9.64;34.21;101295.81;5105961;28;20032;-67
2022/03/12 02:04:09;;;;;;;10.43;6.13;;;;;;;9.62;34.29;101295.81;5114573;28;20052;-67
2022/03/12 02:06:45;;;;;;;9.43;5.82;;;;;;;9.62;34.48;101295.81;5115148;28;20071;-67
2022/03/12 02:09:15;;;;;;;9.70;6.07;;;;;;;9.64;34.54;101298.44;5112561;27;20063;-67
2022/03/12 02:11:50;;;;;;;10.68;6.18;;;;;;;9.63;34.59;101299.34;5112827;27;20047;-67
2022/03/12 02:14:24;;;;;;;10.50;6.40;;;;;;;9.60;34.94;101297.66;5111171;27;20083;-67
2022/03/12 02:16:59;;;;;;;10.90;6.00;;;;;;;9.60;35.20;101305.53;5108690;28;20047;-68
2022/03/12 02:19:32;;;;;;;8.98;6.35;;;;;;;9.59;35.45;101309.06;5110406;28;20032;-69
2022/03/12 02:22:13;;;;;;;11.82;6.43;;;;;;;9.58;35.89;101309.97;5109479;27;20050;-68
2022/03/12 02:24:40;;;;;;;14.70;6.43;;;;;;;9.56;36.75;101303.00;5105306;28;20128;-69
2022/03/12 02:27:10;;;;;;;11.07;6.68;;;;;;;9.51;36.56;101303.09;5110342;27;20048;-68
2022/03/12 02:29:40;;;;;;;13.50;6.60;;;;;;;9.47;36.98;101304.03;5110153;27;20048;-70
2022/03/12 02:32:10;;;;;;;11.57;6.20;;;;;;;9.41;37.16;101297.09;5109968;27;20105;-69
2022/03/12 02:34:45;;;;;;;12.82;6.53;;;;;;;9.39;36.95;101298.88;5112949;27;20045;-68
2022/03/12 02:37:20;;;;;;;;;;;;;;;9.33;37.15;101294.59;5111551;27;20140;-68
2022/03/12 02:39:48;;;;;;;;;;;;;;;9.29;37.07;101295.56;5112605;28;20015;-69
2022/03/12 02:42:19;;;;;;;11.30;6.40;;;;;;;9.29;37.12;101292.06;5111693;28;19924;-69
2022/03/12 02:44:49;;;;;;;10.65;6.60;;;;;;;9.28;37.11;101292.94;5110720;28;20044;-68
2022/03/12 02:47:22;;;;;;;13.32;6.78;;;;;;;9.31;37.04;101298.16;5107022;27;20067;-68
2022/03/12 02:49:59;;;;;;;11.70;6.53;;;;;;;9.27;37.08;101291.22;5109886;28;20135;-69
2022/03/12 02:52:29;;;;;;;11.32;6.50;;;;;;;9.26;36.79;101298.25;5113347;27;20040;-69
2022/03/12 02:54:59;;;;;;;12.55;6.68;;;;;;;9.25;37.10;101295.66;5111499;28;20040;-67
2022/03/12 02:57:29;;;;;;;12.07;6.45;;;;;;;9.23;36.99;101303.56;5113330;28;20040;-68
2022/03/12 03:00:06;;;;;;;11.75;7.07;;;;;;;9.20;37.21;101293.09;5109586;28;20060;-68
2022/03/12 03:02:39;;;;;;;12.30;6.47;;;;;;;9.17;37.30;101299.25;5113755;28;20040;-68
2022/03/12 03:05:16;;;;;;;12.90;6.85;;;;;;;9.16;37.44;101301.94;5106275;28;20045;-70
2022/03/12 03:07:45;;;;;;;11.13;6.82;;;;;;;9.14;37.60;101303.72;5112119;28;20066;-70
2022/03/12 03:10:35;;;;;;;10.93;6.28;;;;;;;9.15;37.59;101302.81;5118604;27;20566;-70
2022/03/12 03:13:17;;;;;;;12.07;6.50;;;;;;;9.14;37.79;101308.97;5112981;28;20044;-70
2022/03/12 03:15:49;;;;;;;12.88;6.65;;;;;;;9.15;37.56;101308.09;5112706;28;20076;-69
2022/03/12 03:18:22;;;;;;;11.50;7.43;;;;;;;9.16;37.55;101315.94;5113203;28;20097;-68
2022/03/12 03:20:52;;;;;;;14.35;6.88;;;;;;;9.19;37.78;101314.16;5113869;28;20052;-68
2022/03/12 03:23:22;;;;;;;14.05;6.45;;;;;;;9.22;37.90;101319.38;5113778;28;20494;-68
2022/03/12 03:25:51;;;;;;;13.27;7.38;;;;;;;9.23;38.06;101319.34;5110424;28;20049;-68
2022/03/12 03:28:18;;;;;;;12.07;7.00;;;;;;;9.24;38.16;101322.84;5111769;28;20036;-68
2022/03/12 03:30:47;;;;;;;10.75;6.18;;;;;;;9.24;38.29;101320.22;5112705;27;20536;-67
2022/03/12 03:33:20;;;;;;;11.32;6.95;;;;;;;9.26;38.32;101324.56;5102281;28;20036;-67
2022/03/12 03:35:49;;;;;;;11.32;6.93;;;;;;;9.26;38.38;101331.59;5113514;28;20048;-67
2022/03/12 03:38:17;;;;;;;11.10;6.35;;;;;;;9.25;38.49;101329.84;5113697;27;20082;-66
2022/03/12 03:40:46;;;;;;;16.08;7.18;;;;;;;9.23;38.60;101327.22;5112830;28;20047;-66
2022/03/12 03:43:18;;;;;;;12.38;7.40;;;;;;;9.24;38.85;101334.22;5112190;27;20044;-68
2022/03/12 03:45:49;;;;;;;14.82;7.47;;;;;;;9.25;39.16;101341.25;5112069;28;20122;-68
2022/03/12 03:48:20;;;;;;;13.32;7.35;;;;;;;9.27;39.12;101335.94;5112469;28;20543;-67
2022/03/12 03:50:50;;;;;;;12.68;7.10;;;;;;;9.27;39.35;101335.94;5113508;27;20040;-67
2022/03/12 03:53:21;;;;;;;14.05;7.25;;;;;;;9.27;39.71;101344.72;5112872;28;20078;-68
2022/03/12 03:55:50;;;;;;;15.50;7.75;;;;;;;9.27;39.48;101339.47;5110270;28;20044;-67
2022/03/12 03:58:17;;;;;;;12.48;7.22;;;;;;;9.29;39.46;101340.31;5111881;28;20040;-67
2022/03/12 04:00:56;;;;;;;13.30;7.47;;;;;;;9.29;39.73;101336.78;5113065;28;20032;-68
2022/03/12 04:03:32;;;;;;;12.38;6.68;;;;;;;9.27;39.81;101339.47;5113358;28;20036;-68
2022/03/12 04:06:02;;;;;;;14.63;7.32;;;;;;;9.27;39.89;101351.72;5112001;28;20044;-68
2022/03/12 04:08:32;;;;;;;15.05;7.78;;;;;;;9.27;39.93;101346.47;5111696;28;20048;-68
2022/03/12 04:11:05;;;;;;;18.30;7.28;;;;;;;9.25;39.99;101349.13;5111390;28;20580;-69
2022/03/12 04:13:34;;;;;;;14.43;7.55;;;;;;;9.22;40.12;101350.94;5112460;28;20040;-68
2022/03/12 04:16:02;;;;;;;11.90;6.95;;;;;;;9.20;40.29;101355.34;5112937;28;20070;-68
2022/03/12 04:18:29;;;;;;;13.98;7.22;;;;;;;9.16;40.26;101357.19;5112478;28;20056;-67
2022/03/12 04:20:57;;;;;;;14.05;7.47;;;;;;;9.14;40.24;101351.06;5108347;28;20044;-68
2022/03/12 04:23:27;;;;;;;15.27;7.05;;;;;;;9.12;40.49;101358.09;5112338;28;20167;-67
2022/03/12 04:25:57;;;;;;;16.25;7.63;;;;;;;9.07;40.50;101365.22;5111796;28;20059;-68
2022/03/12 04:28:32;;;;;;;12.50;6.95;;;;;;;9.02;40.48;101353.00;5110927;28;20047;-69
2022/03/12 04:31:02;;;;;;;13.32;7.47;;;;;;;8.94;40.49;101360.13;5112099;28;20072;-68
2022/03/12 04:33:30;;;;;;;15.68;7.70;;;;;;;8.88;40.65;101360.25;5112615;28;20040;-67
2022/03/12 04:36:00;;;;;;;12.48;6.88;;;;;;;8.78;41.10;101361.28;5111818;28;20494;-66
2022/03/12 04:38:28;;;;;;;11.35;6.80;;;;;;;8.72;41.15;101372.75;5111038;27;20078;-68
2022/03/12 04:40:56;;;;;;;13.68;7.28;;;;;;;8.62;41.50;101371.13;5111940;28;20040;-67
2022/03/12 04:43:31;;;;;;;13.40;7.25;;;;;;;8.53;41.79;101380.88;5105313;27;20082;-69
2022/03/12 04:46:00;;;;;;;16.48;7.50;;;;;;;8.45;42.09;101377.41;5108578;28;20040;-70
2022/03/12 04:48:32;;;;;;;11.35;7.07;;;;;;;8.37;42.09;101384.53;5110027;28;20836;-69
2022/03/12 04:50:59;;;;;;;14.88;7.53;;;;;;;8.30;42.38;101390.75;5111818;27;20036;-69
2022/03/12 04:53:28;;;;;;;16.25;7.40;;;;;;;8.21;42.44;101379.50;5110636;28;20044;-68
2022/03/12 04:55:56;;;;;;;11.23;7.50;;;;;;;8.13;42.62;101385.72;5101854;27;20040;-68
2022/03/12 04:58:23;;;;;;;11.50;6.97;;;;;;;8.04;42.95;101391.91;5111965;28;20044;-66
2022/03/12 05:00:51;;;;;;;10.75;6.88;;;;;;;7.98;43.46;101382.38;5112247;28;20044;-67
2022/03/12 05:03:22;;;;;;;14.48;8.05;;;;;;;7.92;43.54;101393.81;5109954;28;20048;-66
2022/03/12 05:05:52;;;;;;;15.48;7.63;;;;;;;7.85;43.82;101388.63;5103186;28;20074;-67
2022/03/12 05:08:24;;;;;;;11.23;7.35;;;;;;;7.81;44.48;101397.41;5112571;28;20075;-67
2022/03/12 05:10:57;;;;;;;11.63;7.22;;;;;;;7.77;44.23;101404.44;5111385;27;20044;-67
2022/03/12 05:13:30;;;;;;;15.07;7.47;;;;;;;7.73;44.71;101398.38;5097371;28;20444;-67
2022/03/12 05:16:06;;;;;;;14.98;7.35;;;;;;;7.70;44.76;101394.91;5111234;28;20128;-67
2022/03/12 05:18:36;;;;;;;14.93;6.93;;;;;;;7.68;44.97;101399.28;5111100;28;20048;-65
2022/03/12 05:21:06;;;;;;;12.43;6.88;;;;;;;7.65;45.67;101401.94;5111250;28;20044;-68
2022/03/12 05:23:34;;;;;;;10.30;7.00;;;;;;;7.61;45.51;101406.34;5111926;27;20048;-67
2022/03/12 05:26:02;;;;;;;16.52;7.35;;;;;;;7.59;45.59;101405.47;5110413;28;20056;-67
2022/03/12 05:28:32;;;;;;;14.30;8.02;;;;;;;7.57;45.64;101412.53;5111395;28;20131;-67
2022/03/12 05:31:04;;;;;;;10.88;7.30;;;;;;;7.53;46.48;101414.28;5109672;28;20063;-69
2022/03/12 05:33:33;;;;;;;13.90;7.03;;;;;;;7.51;46.43;101407.31;5110586;28;20046;-69
2022/03/12 05:36:02;;;;;;;14.10;7.18;;;;;;;7.50;46.60;101414.31;5111909;28;20119;-66
2022/03/12 05:38:35;;;;;;;11.02;7.10;;;;;;;7.49;46.72;101409.97;5111844;27;20059;-66
2022/03/12 05:41:11;;;;;;;10.15;6.45;;;;;;;7.47;46.90;101419.59;5109651;28;20036;-66
2022/03/12 05:43:45;;;;;;;13.00;7.13;;;;;;;7.44;46.84;101424.84;5100131;28;20119;-66
2022/03/12 05:46:15;;;;;;;13.00;7.22;;;;;;;7.42;46.66;101424.00;5110504;28;20460;-65
2022/03/12 05:48:47;;;;;;;12.52;7.63;;;;;;;7.40;46.62;101423.16;5097048;28;20044;-66
2022/03/12 05:51:16;;;;;;;11.68;7.40;;;;;;;7.38;46.80;101422.28;5111081;28;20466;-69
2022/03/12 05:53:44;;;;;;;15.88;7.35;;;;;;;7.35;46.50;101431.06;5110445;28;20071;-69
2022/03/12 05:56:11;;;;;;;11.27;7.05;;;;;;;7.36;46.88;101424.03;5103921;28;20449;-69
2022/03/12 05:58:40;;;;;;;13.02;7.35;;;;;;;7.37;46.94;101428.41;5106330;28;20044;-70
2022/03/12 06:01:08;;;;;;;15.10;7.53;;;;;;;7.39;46.94;101434.53;5100203;28;20036;-68
2022/03/12 06:03:36;;;;;;;10.68;6.93;;;;;;;7.40;46.80;101425.78;5110404;28;20032;-66
2022/03/12 06:06:03;;;;;;;13.32;7.13;;;;;;;7.41;46.85;101435.38;5109992;28;20048;-66
2022/03/12 06:08:33;;;;;;;15.63;6.70;;;;;;;7.41;47.00;101435.38;5109092;27;20083;-68
2022/03/12 06:11:02;;;;;;;13.15;6.80;;;;;;;7.41;47.30;101432.75;5106346;28;20040;-67
2022/03/12 06:13:32;;;;;;;12.18;6.80;;;;;;;7.41;47.41;101444.13;5113075;28;20123;-69
2022/03/12 06:16:02;;;;;;;10.60;6.35;;;;;;;7.45;47.20;101439.72;5097526;28;20040;-68
2022/03/12 06:18:34;;;;;;;10.95;6.97;;;;;;;7.43;47.16;101431.88;5113905;28;20079;-69
2022/03/12 06:21:04;;;;;;;14.70;7.20;;;;;;;7.53;47.60;101445.75;5107544;28;20076;-67
2022/03/12 06:23:33;;;;;;;12.57;7.00;;;;;;;7.60;47.38;101449.22;5113018;28;20044;-66
2022/03/12 06:26:02;;;;;;;14.18;7.40;;;;;;;7.64;47.68;101447.44;5112856;28;20143;-65
2022/03/12 06:28:32;;;;;;;12.60;7.15;;;;;;;7.67;47.55;101452.66;5112878;28;20126;-66
2022/03/12 06:31:01;;;;;;;12.25;7.13;;;;;;;7.68;47.52;101451.78;5113676;28;20044;-69
2022/03/12 06:33:29;;;;;;;12.05;6.88;;;;;;;7.73;47.85;101455.25;5114135;28;20044;-67
2022/03/12 06:35:57;;;;;;;11.32;7.13;;;;;;;7.78;47.57;101464.81;5114109;28;20048;-66
2022/03/12 06:38:32;;;;;;;10.77;6.90;;;;;;;7.80;47.11;101456.94;5115360;27;20074;-67
2022/03/12 06:40:59;;;;;;;13.80;7.00;;;;;;;7.80;47.18;101466.53;5113941;28;20120;-67
2022/03/12 06:43:28;;;;;;;13.00;7.57;;;;;;;7.79;47.34;101473.56;5104508;27;20032;-67
2022/03/12 06:46:01;;;;;;;11.65;7.47;;;;;;;7.80;47.50;101469.16;5108252;28;20044;-67
2022/03/12 06:48:31;;;;;;;19.05;7.03;;;;;;;7.86;48.00;101469.13;5107282;27;20615;-67
2022/03/12 06:50:59;;;;;;;10.35;6.78;;;;;;;7.93;48.35;101476.06;5106426;28;20125;-65
2022/03/12 06:53:26;;;;;;;9.80;6.47;;;;;;;8.02;48.30;101477.75;5104037;28;20070;-67
2022/03/12 06:55:54;;;;;;;12.50;7.47;;;;;;;8.07;48.39;101476.81;5105468;28;20036;-67
2022/03/12 06:58:23;;;;;;;10.48;6.90;;;;;;;8.17;48.41;101482.81;5109742;27;20048;-66
2022/03/12 07:00:50;;;;;;;12.05;6.93;;;;;;;8.30;48.33;101480.09;5101414;28;20040;-68
2022/03/12 07:03:17;;;;;;;13.85;7.00;;;;;;;8.39;47.94;101478.22;5118883;27;20121;-67
2022/03/12 07:05:44;;;;;;;11.18;7.63;;;;;;;8.45;47.56;101484.31;5107325;28;20064;-67
2022/03/12 07:08:12;;;;;;;12.00;7.25;;;;;;;8.50;47.42;101482.50;5107616;27;20116;-69
2022/03/12 07:10:39;;;;;;;10.30;6.40;;;;;;;8.55;47.35;101485.97;5110047;27;20062;-69
2022/03/12 07:13:06;;;;;;;12.80;7.28;;;;;;;8.64;47.23;101483.22;5109616;28;20086;-71
2022/03/12 07:15:34;;;;;;;10.35;6.82;;;;;;;8.71;47.17;101489.28;5107602;27;20033;-68
2022/03/12 07:18:01;;;;;;;13.98;7.13;;;;;;;8.79;47.21;101476.06;5106594;27;20049;-69
2022/03/12 07:20:29;;;;;;;11.15;6.53;;;;;;;8.85;47.43;101483.84;5108095;27;20048;-66
2022/03/12 07:22:58;;;;;;;13.82;7.35;;;;;;;8.91;47.48;101485.53;5103457;28;20036;-66
2022/03/12 07:25:25;;;;;;;12.40;7.15;;;;;;;8.97;47.15;101494.22;5105157;27;20825;-67
2022/03/12 07:27:54;;;;;;;18.00;6.90;;;;;;;9.06;47.26;101490.56;5099895;28;20147;-67
2022/03/12 07:30:22;;;;;;;11.18;6.82;;;;;;;9.13;47.50;101507.16;5090858;28;20084;-68
2022/03/12 07:32:49;;;;;;;11.98;6.18;;;;;;;9.19;47.31;101499.19;5099310;28;20042;-68
2022/03/12 07:35:18;;;;;;;11.18;6.75;;;;;;;9.25;47.55;101501.72;5105544;27;20112;-67
2022/03/12 07:37:49;;;;;;;11.10;6.97;;;;;;;9.32;47.52;101494.63;5096955;28;20103;-68
2022/03/12 07:40:16;;;;;;;12.38;7.00;;;;;;;9.36;47.77;101492.81;5101804;28;20052;-68
2022/03/12 07:42:45;;;;;;;15.90;6.53;;;;;;;9.39;47.66;101500.66;5110946;28;20032;-68
2022/03/12 07:45:15;;;;;;;11.10;6.28;;;;;;;9.43;47.64;101497.06;5109485;28;20457;-68
2022/03/12 07:47:44;;;;;;;11.18;6.35;;;;;;;9.51;47.73;101497.84;5108033;28;20129;-67
2022/03/12 07:50:12;;;;;;;10.27;6.63;;;;;;;9.61;47.72;101506.47;5101314;28;20044;-67
2022/03/12 07:52:40;;;;;;;10.48;6.60;;;;;;;9.70;47.96;101506.31;5097444;28;20047;-67
2022/03/12 07:55:10;;;;;;;10.75;7.13;;;;;;;9.76;48.09;101510.63;5098241;28;20040;-69
2022/03/12 07:57:40;;;;;;;12.00;6.35;;;;;;;9.83;48.07;101522.78;5104742;27;20037;-68
2022/03/12 08:00:14;;;;;;;10.77;7.40;;;;;;;9.88;48.07;101517.44;5100544;28;20032;-67
2022/03/12 08:02:48;;;;;;;10.85;6.35;;;;;;;9.97;48.21;101522.53;5095710;28;20942;-68
2022/03/12 08:05:17;;;;;;;11.30;6.35;;;;;;;10.00;48.31;101524.28;5107326;27;20145;-66
2022/03/12 08:07:44;;;;;;;10.10;6.72;;;;;;;10.03;48.43;101538.25;5091191;28;20041;-66
2022/03/12 08:10:11;;;;;;;11.38;6.57;;;;;;;10.08;48.53;101540.81;5089927;28;20080;-68
2022/03/12 08:12:38;;;;;;;15.43;7.28;;;;;;;10.12;48.59;101537.25;5100038;28;20040;-66
2022/03/12 08:15:11;;;;;;;11.43;6.45;;;;;;;10.20;48.75;101543.25;5094425;28;20584;-69
2022/03/12 08:17:45;;;;;;;11.57;7.15;;;;;;;10.26;48.73;101539.63;5102299;28;20048;-68
2022/03/12 08:20:13;;;;;;;9.15;6.38;;;;;;;10.39;48.61;101550.84;5108454;28;20595;-70
2022/03/12 08:22:45;;;;;;;14.32;7.30;;;;;;;10.47;48.74;101551.56;5093131;28;20044;-67
2022/03/12 08:25:15;;;;;;;14.38;6.68;;;;;;;10.52;48.79;101548.84;5108438;28;20059;-68
2022/03/12 08:27:43;;;;;;;14.70;6.93;;;;;;;10.62;48.89;101570.66;5103828;28;20083;-67
2022/03/12 08:30:11;;;;;;;10.68;7.13;;;;;;;10.65;48.97;101575.84;5103873;27;20047;-68
2022/03/12 08:32:40;;;;;;;14.13;7.25;;;;;;;10.71;48.71;101576.59;5096277;28;20050;-68
2022/03/12 08:35:09;;;;;;;12.82;7.55;;;;;;;10.79;48.93;101578.22;5104037;28;20044;-68
2022/03/12 08:37:37;;;;;;;10.25;6.88;;;;;;;10.86;49.42;101575.44;5097251;28;20166;-68
2022/03/12 08:40:07;;;;;;;10.25;6.72;;;;;;;10.93;49.71;101578.84;5107210;27;20033;-68
2022/03/12 08:42:35;;;;;;;16.95;6.88;;;;;;;11.00;49.65;101583.06;5102216;28;20037;-67
2022/03/12 08:45:04;;;;;;;8.55;6.40;;;;;;;11.10;50.71;101588.16;5106590;27;20036;-68
2022/03/12 08:47:31;;;;;;;9.43;6.50;;;;;;;11.19;50.55;101585.38;5109343;27;20627;-67
2022/03/12 08:49:59;;;;;;;12.75;6.80;;;;;;;11.29;50.87;101589.50;5104811;28;20037;-67
2022/03/12 08:52:27;;;;;;;11.20;6.70;;;;;;;11.43;50.90;101598.91;5094534;27;20048;-65
2022/03/12 08:54:54;;;;;;;9.68;6.20;;;;;;;11.57;51.73;101602.13;5102491;28;20040;-68
2022/03/12 08:57:22;;;;;;;11.68;7.07;;;;;;;11.69;51.05;101594.84;5098307;28;20079;-67
2022/03/12 08:59:49;;;;;;;12.05;6.15;;;;;;;11.93;51.30;101601.31;5102268;27;20093;-66
2022/03/12 09:02:18;;;;;;;11.07;6.47;;;;;;;12.12;51.56;101599.13;5102750;28;20043;-68
2022/03/12 09:04:45;;;;;;;11.48;5.97;;;;;;;12.28;51.18;101599.59;5105248;27;20152;-68
2022/03/12 09:07:14;;;;;;;9.40;6.07;;;;;;;12.46;51.26;101586.84;5088222;28;20092;-67
2022/03/12 09:09:41;;;;;;;11.65;6.80;;;;;;;12.55;51.68;101576.88;5102092;27;20143;-68
2022/03/12 09:12:09;;;;;;;11.07;6.55;;;;;;;12.65;51.52;101584.53;5097951;28;20078;-68
2022/03/12 09:14:36;;;;;;;13.20;6.10;;;;;;;12.74;51.26;101589.59;5097856;27;20044;-68
2022/03/12 09:17:05;;;;;;;8.27;5.40;;;;;;;12.87;51.10;101580.41;5100365;28;20121;-68
2022/03/12 09:19:33;;;;;;;10.43;6.25;;;;;;;12.99;51.19;101587.13;5088098;28;20044;-68
2022/03/12 09:22:02;;;;;;;10.43;5.50;;;;;;;13.11;51.28;101585.91;5100461;28;20782;-70
2022/03/12 09:24:31;;;;;;;9.05;6.07;;;;;;;13.24;51.10;101583.78;5098985;27;20056;-69
2022/03/12 09:26:59;;;;;;;8.60;5.30;;;;;;;13.36;51.36;101588.72;5097225;28;20033;-69
2022/03/12 09:29:27;;;;;;;10.35;4.68;;;;;;;13.36;51.76;101583.41;5094320;28;20126;-68
2022/03/12 09:31:54;;;;;;;8.13;4.57;;;;;;;13.39;51.16;101587.78;5100631;28;20051;-68
2022/03/12 09:34:21;;;;;;;9.02;4.68;;;;;;;13.44;51.62;101593.78;5087707;28;20535;-69
2022/03/12 09:36:50;;;;;;;9.77;4.68;;;;;;;13.48;51.17;101579.53;5087958;28;20076;-69
2022/03/12 09:39:18;;;;;;;6.97;4.95;;;;;;;13.57;51.00;101594.28;5103774;28;20047;-67
2022/03/12 09:41:47;;;;;;;8.27;5.00;;;;;;;13.66;51.04;101590.47;5107475;28;20595;-67
2022/03/12 09:44:14;;;;;;;10.00;5.03;;;;;;;13.73;51.20;101597.34;5102659;27;20052;-67
2022/03/12 09:46:42;;;;;;;8.65;4.13;;;;;;;13.77;50.68;101598.97;5097894;27;20039;-68
2022/03/12 09:49:11;;;;;;;6.60;4.40;;;;;;;13.80;50.61;101593.56;5104105;28;20462;-67
2022/03/12 09:51:43;;;;;;;8.43;5.10;;;;;;;13.88;50.93;101589.78;5109746;27;20098;-68
2022/03/12 09:54:11;;;;;;;8.55;4.53;;;;;;;13.88;50.81;101597.75;5105608;27;20044;-69
2022/03/12 09:56:39;;;;;;;7.63;4.60;;;;;;;13.94;50.61;101598.41;5108676;28;20039;-69
2022/03/12 09:59:07;;;;;;;7.03;4.10;;;;;;;14.01;50.37;101590.25;5104083;27;20036;-67
2022/03/12 10:01:34;;;;;;;8.02;4.13;;;;;;;14.08;50.25;101594.47;5105950;28;20039;-67
2022/03/12 10:04:04;;;;;;;8.23;4.30;;;;;;;14.13;49.97;101588.09;5101884;28;20098;-68
2022/03/12 10:06:36;;;;;;;8.00;4.32;;;;;;;14.20;49.93;101593.19;5103689;28;20378;-67
2022/03/12 10:09:08;;;;;;;;;;;;;;;14.21;49.79;101597.56;5099952;28;20037;-67
2022/03/12 10:11:35;;;;;;;10.85;4.43;;;;;;;14.24;49.41;101592.16;5091496;28;19928;-68
2022/03/12 10:14:02;;;;;;;8.75;4.53;;;;;;;14.31;49.84;101595.44;5106809;28;20928;-69
2022/03/12 10:16:33;;;;;;;9.75;4.70;;;;;;;14.36;49.69;101599.69;5099383;28;20981;-68
2022/03/12 10:19:00;;;;;;;8.90;4.40;;;;;;;14.39;49.26;101598.72;5095060;28;20043;-68
2022/03/12 10:21:30;;;;;;;7.75;4.10;;;;;;;14.43;49.41;101606.53;5100838;28;20036;-68
2022/03/12 10:23:59;;;;;;;6.55;4.32;;;;;;;14.47;49.28;101601.97;5112267;27;20040;-67
2022/03/12 10:26:28;;;;;;;8.45;4.38;;;;;;;14.55;49.13;101604.38;5105600;27;20106;-67
2022/03/12 10:28:55;;;;;;;7.57;4.07;;;;;;;14.64;49.08;101605.81;5097571;28;20037;-68
2022/03/12 10:31:22;;;;;;;7.43;3.85;;;;;;;14.71;48.79;101610.03;5109443;28;20132;-68
2022/03/12 10:33:50;;;;;;;7.38;3.85;;;;;;;14.73;48.27;101608.19;5115328;28;20036;-69
2022/03/12 10:36:18;;;;;;;5.65;3.40;;;;;;;14.72;48.27;101615.28;5110221;28;20464;-69
2022/03/12 10:38:52;;;;;;;8.63;3.97;;;;;;;14.74;48.15;101609.91;5114359;27;20105;-69
2022/03/12 10:41:27;;;;;;;11.77;3.92;;;;;;;14.81;48.25;101615.88;5111210;28;20040;-67
2022/03/12 10:43:54;;;;;;;6.97;4.13;;;;;;;14.88;48.26;101620.03;5102527;27;20052;-68
2022/03/12 10:46:28;;;;;;;8.45;3.88;;;;;;;14.97;48.16;101619.69;5094921;28;20041;-68
2022/03/12 10:48:59;;;;;;;7.28;3.75;;;;;;;15.01;47.89;101616.03;5094648;28;20037;-68
2022/03/12 10:51:37;;;;;;;9.55;4.28;;;;;;;15.03;47.50;101624.81;5106965;28;20131;-70
2022/03/12 10:54:10;;;;;;;11.43;5.15;;;;;;;15.03;47.74;101618.63;5109895;27;20518;-68
2022/03/12 10:56:47;;;;;;;9.65;4.50;;;;;;;15.13;47.44;101622.66;5114656;28;20055;-69
2022/03/12 10:59:20;;;;;;;8.20;4.88;;;;;;;15.17;47.32;101620.75;5112250;27;20714;-69
2022/03/12 11:02:00;;;;;;;8.27;4.45;;;;;;;15.22;47.35;101618.81;5100106;28;20044;-69
2022/03/12 11:04:33;;;;;;;11.32;4.90;;;;;;;15.24;47.51;101616.97;5111540;27;20852;-68
2022/03/12 11:07:29;;;;;;;12.93;4.50;;;;;;;15.27;47.37;101618.63;5108404;28;20123;-69
2022/03/12 11:09:57;;;;;;;;;;;;;;;15.31;47.28;101626.44;5113352;28;20124;-68
2022/03/12 11:12:38;;;;;;;6.68;3.63;;;;;;;15.36;46.92;101618.28;5121746;28;19931;-68
2022/03/12 11:15:15;;;;;;;8.82;4.30;;;;;;;15.43;46.84;101618.91;5112960;28;20037;-68
2022/03/12 11:17:45;;;;;;;8.77;3.70;;;;;;;15.52;46.89;101611.44;5113809;28;20133;-69
2022/03/12 11:20:23;;;;;;;9.13;4.60;;;;;;;15.63;46.59;101618.13;5113715;28;20087;-69
2022/03/12 11:23:09;;;;;;;7.68;4.32;;;;;;;15.74;46.38;101617.72;5108081;28;20044;-68
2022/03/12 11:25:56;;;;;;;7.35;4.05;;;;;;;15.82;46.05;101626.25;5106386;27;20064;-68
2022/03/12 11:28:25;;;;;;;7.15;4.53;;;;;;;15.82;45.88;101615.63;5113873;28;20379;-68
2022/03/12 11:30:53;;;;;;;6.47;3.80;;;;;;;15.94;45.54;101609.84;5114837;27;20036;-68
2022/03/12 11:33:22;;;;;;;8.25;4.50;;;;;;;16.11;45.70;101602.94;5112805;28;20525;-69
2022/03/12 11:36:00;;;;;;;8.82;4.20;;;;;;;16.19;45.16;101611.47;5109301;28;20425;-68
2022/03/12 11:38:28;;;;;;;17.45;4.47;;;;;;;16.30;45.10;101611.91;5110813;27;20052;-68
2022/03/12 11:41:24;;;;;;;7.32;3.70;;;;;;;16.45;44.75;101612.19;5100070;28;20070;-67